sensor_id;sensor_type;location;lat;lon;timestamp;pressure;altitude;pressure_sealevel;temperature;humidity
2549;BME280;1284;53.520;10.248;2022-12-24T00:01:53;99714.38;;;8.83;98.90
2549;BME280;1284;53.520;10.248;2022-12-24T00:04:18;99705.44;;;8.72;99.75
2549;BME280;1284;53.520;10.248;2022-12-24T00:06:43;99713.16;;;8.77;99.60
2549;BME280;1284;53.520;10.248;2022-12-24T00:09:09;99712.38;;;8.73;99.00
2549;BME280;1284;53.520;10.248;2022-12-24T00:11:34;99717.84;;;8.83;99.61
2549;BME280;1284;53.520;10.248;2022-12-24T00:14:00;99704.44;;;8.83;99.03
2549;BME280;1284;53.520;10.248;2022-12-24T00:16:25;99711.56;;;8.69;99.43
2549;BME280;1284;53.520;10.248;2022-12-24T00:18:53;99714.91;;;8.62;99.92
2549;BME280;1284;53.520;10.248;2022-12-24T00:21:19;99713.84;;;8.67;99.73
2549;BME280;1284;53.520;10.248;2022-12-24T00:23:44;99709.56;;;8.62;100.00
2549;BME280;1284;53.520;10.248;2022-12-24T00:26:11;99717.34;;;8.71;99.56
2549;BME280;1284;53.520;10.248;2022-12-24T00:28:36;99718.91;;;8.75;99.42
2549;BME280;1284;53.520;10.248;2022-12-24T00:31:10;99714.13;;;8.62;99.69
2549;BME280;1284;53.520;10.248;2022-12-24T00:33:36;99711.88;;;8.64;100.00
2549;BME280;1284;53.520;10.248;2022-12-24T00:36:02;99716.09;;;8.65;99.86
2549;BME280;1284;53.520;10.248;2022-12-24T00:38:27;99717.28;;;8.67;99.88
2549;BME280;1284;53.520;10.248;2022-12-24T00:41:00;99724.19;;;8.68;99.75
2549;BME280;1284;53.520;10.248;2022-12-24T00:43:27;99718.09;;;8.71;99.51
2549;BME280;1284;53.520;10.248;2022-12-24T00:45:53;99732.31;;;8.75;99.23
2549;BME280;1284;53.520;10.248;2022-12-24T00:48:21;99724.03;;;8.87;98.26
2549;BME280;1284;53.520;10.248;2022-12-24T00:50:48;99731.94;;;8.77;99.08
2549;BME280;1284;53.520;10.248;2022-12-24T00:53:14;99733.56;;;8.81;98.96
2549;BME280;1284;53.520;10.248;2022-12-24T00:55:39;99733.56;;;8.81;99.21
2549;BME280;1284;53.520;10.248;2022-12-24T00:58:05;99729.69;;;8.79;99.27
2549;BME280;1284;53.520;10.248;2022-12-24T01:00:30;99734.59;;;8.73;99.05
2549;BME280;1284;53.520;10.248;2022-12-24T01:02:56;99744.59;;;8.73;98.87
2549;BME280;1284;53.520;10.248;2022-12-24T01:05:21;99733.50;;;8.78;99.32
2549;BME280;1284;53.520;10.248;2022-12-24T01:07:47;99737.69;;;8.75;98.75
2549;BME280;1284;53.520;10.248;2022-12-24T01:10:16;99742.69;;;8.77;99.17
2549;BME280;1284;53.520;10.248;2022-12-24T01:12:42;99738.44;;;8.72;99.32
2549;BME280;1284;53.520;10.248;2022-12-24T01:15:09;99751.44;;;8.70;99.29
2549;BME280;1284;53.520;10.248;2022-12-24T01:17:35;99750.06;;;8.83;98.72
2549;BME280;1284;53.520;10.248;2022-12-24T01:20:02;99753.44;;;8.77;98.82
2549;BME280;1284;53.520;10.248;2022-12-24T01:22:28;99747.34;;;8.80;98.88
2549;BME280;1284;53.520;10.248;2022-12-24T01:24:54;99749.25;;;8.79;98.78
2549;BME280;1284;53.520;10.248;2022-12-24T01:27:19;99753.50;;;8.80;99.21
2549;BME280;1284;53.520;10.248;2022-12-24T01:29:44;99758.53;;;8.85;98.34
2549;BME280;1284;53.520;10.248;2022-12-24T01:32:10;99757.72;;;8.81;98.22
2549;BME280;1284;53.520;10.248;2022-12-24T01:34:35;99775.72;;;8.81;98.25
2549;BME280;1284;53.520;10.248;2022-12-24T01:37:01;99766.50;;;8.78;98.99
2549;BME280;1284;53.520;10.248;2022-12-24T01:39:26;99763.00;;;8.74;98.89
2549;BME280;1284;53.520;10.248;2022-12-24T01:41:52;99765.28;;;8.72;98.83
2549;BME280;1284;53.520;10.248;2022-12-24T01:44:41;99760.31;;;8.74;98.96
2549;BME280;1284;53.520;10.248;2022-12-24T01:47:10;99761.81;;;8.72;99.20
2549;BME280;1284;53.520;10.248;2022-12-24T01:49:38;99755.63;;;8.68;98.68
2549;BME280;1284;53.520;10.248;2022-12-24T01:52:09;99759.78;;;8.65;99.16
2549;BME280;1284;53.520;10.248;2022-12-24T01:54:50;99761.41;;;8.70;99.51
2549;BME280;1284;53.520;10.248;2022-12-24T01:59:55;99767.53;;;8.70;99.12
2549;BME280;1284;53.520;10.248;2022-12-24T02:02:22;99779.47;;;8.73;99.34
2549;BME280;1284;53.520;10.248;2022-12-24T02:05:02;99769.91;;;8.75;98.75
2549;BME280;1284;53.520;10.248;2022-12-24T02:07:29;99771.06;;;8.74;98.94
2549;BME280;1284;53.520;10.248;2022-12-24T02:09:59;99776.31;;;8.67;98.66
2549;BME280;1284;53.520;10.248;2022-12-24T02:12:27;99771.34;;;8.69;98.96
2549;BME280;1284;53.520;10.248;2022-12-24T02:14:54;99778.66;;;8.69;98.62
2549;BME280;1284;53.520;10.248;2022-12-24T02:26:12;99803.97;;;8.71;99.07
2549;BME280;1284;53.520;10.248;2022-12-24T02:28:41;99799.59;;;8.60;98.96
2549;BME280;1284;53.520;10.248;2022-12-24T02:31:22;99799.91;;;8.55;98.90
2549;BME280;1284;53.520;10.248;2022-12-24T02:33:58;99798.34;;;8.54;99.79
2549;BME280;1284;53.520;10.248;2022-12-24T02:36:34;99805.41;;;8.65;99.59
2549;BME280;1284;53.520;10.248;2022-12-24T02:39:04;99804.28;;;8.66;99.63
2549;BME280;1284;53.520;10.248;2022-12-24T02:41:35;99806.66;;;8.71;98.96
2549;BME280;1284;53.520;10.248;2022-12-24T02:44:25;99807.81;;;8.70;99.00
2549;BME280;1284;53.520;10.248;2022-12-24T02:46:51;99811.28;;;8.71;98.55
2549;BME280;1284;53.520;10.248;2022-12-24T02:49:17;99805.53;;;8.72;99.34
2549;BME280;1284;53.520;10.248;2022-12-24T02:51:42;99810.03;;;8.65;99.18
2549;BME280;1284;53.520;10.248;2022-12-24T02:54:08;99818.84;;;8.65;99.06
2549;BME280;1284;53.520;10.248;2022-12-24T02:59:59;99816.22;;;8.69;99.07
2549;BME280;1284;53.520;10.248;2022-12-24T03:13:18;99815.19;;;8.51;99.30
2549;BME280;1284;53.520;10.248;2022-12-24T03:15:46;99824.72;;;8.48;99.09
2549;BME280;1284;53.520;10.248;2022-12-24T03:18:17;99817.41;;;8.45;99.28
2549;BME280;1284;53.520;10.248;2022-12-24T03:20:49;99824.25;;;8.43;99.59
2549;BME280;1284;53.520;10.248;2022-12-24T03:23:17;99825.47;;;8.45;99.44
2549;BME280;1284;53.520;10.248;2022-12-24T03:25:43;99820.59;;;8.54;99.54
2549;BME280;1284;53.520;10.248;2022-12-24T03:28:11;99830.63;;;8.57;99.02
2549;BME280;1284;53.520;10.248;2022-12-24T03:30:40;99832.13;;;8.55;99.37
2549;BME280;1284;53.520;10.248;2022-12-24T03:33:05;99837.13;;;8.56;99.31
2549;BME280;1284;53.520;10.248;2022-12-24T03:35:31;99844.47;;;8.59;99.22
2549;BME280;1284;53.520;10.248;2022-12-24T03:37:56;99839.09;;;8.59;99.14
2549;BME280;1284;53.520;10.248;2022-12-24T03:40:22;99844.88;;;8.61;98.89
2549;BME280;1284;53.520;10.248;2022-12-24T03:42:47;99852.09;;;8.57;99.38
2549;BME280;1284;53.520;10.248;2022-12-24T03:45:13;99852.50;;;8.59;98.98
2549;BME280;1284;53.520;10.248;2022-12-24T03:47:38;99856.97;;;8.52;99.18
2549;BME280;1284;53.520;10.248;2022-12-24T03:50:04;99854.69;;;8.54;99.12
2549;BME280;1284;53.520;10.248;2022-12-24T03:52:30;99858.94;;;8.55;99.65
2549;BME280;1284;53.520;10.248;2022-12-24T03:54:56;99856.63;;;8.53;99.36
2549;BME280;1284;53.520;10.248;2022-12-24T03:57:21;99858.63;;;8.60;99.57
2549;BME280;1284;53.520;10.248;2022-12-24T03:59:47;99854.47;;;8.62;99.52
2549;BME280;1284;53.520;10.248;2022-12-24T04:02:12;99866.84;;;8.70;98.90
2549;BME280;1284;53.520;10.248;2022-12-24T04:04:37;99876.72;;;8.40;99.03
2549;BME280;1284;53.520;10.248;2022-12-24T04:07:04;99871.34;;;8.40;99.52
2549;BME280;1284;53.520;10.248;2022-12-24T04:09:29;99876.13;;;8.50;99.56
2549;BME280;1284;53.520;10.248;2022-12-24T04:11:55;99875.03;;;8.55;99.42
2549;BME280;1284;53.520;10.248;2022-12-24T04:14:20;99885.78;;;8.55;99.26
2549;BME280;1284;53.520;10.248;2022-12-24T04:16:46;99880.09;;;8.60;99.05
2549;BME280;1284;53.520;10.248;2022-12-24T04:19:11;99880.50;;;8.62;98.93
2549;BME280;1284;53.520;10.248;2022-12-24T04:21:37;99882.06;;;8.63;98.59
2549;BME280;1284;53.520;10.248;2022-12-24T04:24:02;99882.56;;;8.46;98.66
2549;BME280;1284;53.520;10.248;2022-12-24T04:26:28;99882.44;;;8.39;99.75
2549;BME280;1284;53.520;10.248;2022-12-24T04:28:53;99887.16;;;8.45;99.31
2549;BME280;1284;53.520;10.248;2022-12-24T04:31:18;99895.63;;;8.47;99.53
2549;BME280;1284;53.520;10.248;2022-12-24T04:33:44;99898.34;;;8.51;99.26
2549;BME280;1284;53.520;10.248;2022-12-24T04:36:15;99883.94;;;8.59;98.96
2549;BME280;1284;53.520;10.248;2022-12-24T04:38:44;99907.66;;;8.57;98.99
2549;BME280;1284;53.520;10.248;2022-12-24T04:41:13;99892.75;;;8.59;98.97
2549;BME280;1284;53.520;10.248;2022-12-24T04:43:39;99898.34;;;8.51;99.02
2549;BME280;1284;53.520;10.248;2022-12-24T04:46:15;99903.06;;;8.57;98.78
2549;BME280;1284;53.520;10.248;2022-12-24T04:48:43;99902.72;;;8.59;99.02
2549;BME280;1284;53.520;10.248;2022-12-24T04:51:09;99901.94;;;8.58;98.98
2549;BME280;1284;53.520;10.248;2022-12-24T04:53:35;99902.81;;;8.66;98.38
2549;BME280;1284;53.520;10.248;2022-12-24T04:56:01;99910.06;;;8.65;98.55
2549;BME280;1284;53.520;10.248;2022-12-24T04:58:27;99901.56;;;8.60;98.67
2549;BME280;1284;53.520;10.248;2022-12-24T05:00:53;99907.66;;;8.57;98.26
2549;BME280;1284;53.520;10.248;2022-12-24T05:03:19;99898.34;;;8.51;98.51
2549;BME280;1284;53.520;10.248;2022-12-24T05:08:30;99908.72;;;8.52;98.39
2549;BME280;1284;53.520;10.248;2022-12-24T05:10:57;99906.47;;;8.54;98.58
2549;BME280;1284;53.520;10.248;2022-12-24T05:13:23;99903.78;;;8.54;98.54
2549;BME280;1284;53.520;10.248;2022-12-24T05:15:49;99904.19;;;8.56;98.75
2549;BME280;1284;53.520;10.248;2022-12-24T05:18:14;99902.44;;;8.67;97.87
2549;BME280;1284;53.520;10.248;2022-12-24T05:20:40;99903.06;;;8.57;98.08
2549;BME280;1284;53.520;10.248;2022-12-24T05:23:06;99902.34;;;8.60;97.77
2549;BME280;1284;53.520;10.248;2022-12-24T05:25:51;99905.75;;;8.57;97.88
2549;BME280;1284;53.520;10.248;2022-12-24T05:28:37;99905.75;;;8.57;98.08
2549;BME280;1284;53.520;10.248;2022-12-24T05:31:03;99902.59;;;8.52;97.81
2549;BME280;1284;53.520;10.248;2022-12-24T05:33:28;99909.09;;;8.51;98.46
2549;BME280;1284;53.520;10.248;2022-12-24T05:35:54;99914.88;;;8.53;98.17
2549;BME280;1284;53.520;10.248;2022-12-24T05:38:19;99930.00;;;8.64;96.94
2549;BME280;1284;53.520;10.248;2022-12-24T05:40:45;99919.03;;;8.50;97.72
2549;BME280;1284;53.520;10.248;2022-12-24T05:43:11;99922.47;;;8.47;98.32
2549;BME280;1284;53.520;10.248;2022-12-24T05:45:36;99923.53;;;8.43;98.52
2549;BME280;1284;53.520;10.248;2022-12-24T05:48:01;99922.50;;;8.51;98.29
2549;BME280;1284;53.520;10.248;2022-12-24T05:50:27;99938.66;;;8.54;98.47
2549;BME280;1284;53.520;10.248;2022-12-24T05:53:03;99937.00;;;8.46;98.30
2549;BME280;1284;53.520;10.248;2022-12-24T05:55:28;99940.69;;;8.38;97.99
2549;BME280;1284;53.520;10.248;2022-12-24T05:57:54;99943.88;;;8.44;98.45
2549;BME280;1284;53.520;10.248;2022-12-24T06:00:19;99935.72;;;8.40;98.10
2549;BME280;1284;53.520;10.248;2022-12-24T06:02:45;99939.66;;;8.46;97.90
2549;BME280;1284;53.520;10.248;2022-12-24T06:05:10;99937.66;;;8.40;98.04
2549;BME280;1284;53.520;10.248;2022-12-24T06:07:36;99943.72;;;8.37;98.54
2549;BME280;1284;53.520;10.248;2022-12-24T06:10:01;99943.09;;;8.43;98.48
2549;BME280;1284;53.520;10.248;2022-12-24T06:12:27;99954.50;;;8.40;98.49
2549;BME280;1284;53.520;10.248;2022-12-24T06:14:52;99951.97;;;8.47;98.40
2549;BME280;1284;53.520;10.248;2022-12-24T06:17:17;99948.44;;;8.43;98.47
2549;BME280;1284;53.520;10.248;2022-12-24T06:19:43;99960.03;;;8.47;98.24
2549;BME280;1284;53.520;10.248;2022-12-24T06:22:08;99947.13;;;8.56;97.24
2549;BME280;1284;53.520;10.248;2022-12-24T06:24:34;99961.03;;;8.39;97.92
2549;BME280;1284;53.520;10.248;2022-12-24T06:26:59;99949.34;;;8.51;97.28
2549;BME280;1284;53.520;10.248;2022-12-24T06:29:24;99946.88;;;8.42;97.46
2549;BME280;1284;53.520;10.248;2022-12-24T06:31:50;99957.06;;;8.33;97.46
2549;BME280;1284;53.520;10.248;2022-12-24T06:34:16;99948.25;;;8.33;98.47
2549;BME280;1284;53.520;10.248;2022-12-24T06:36:41;99946.81;;;8.39;98.33
2549;BME280;1284;53.520;10.248;2022-12-24T06:39:06;99956.06;;;8.41;98.04
2549;BME280;1284;53.520;10.248;2022-12-24T06:41:32;99952.97;;;8.39;98.28
2549;BME280;1284;53.520;10.248;2022-12-24T06:43:57;99964.81;;;8.38;98.00
2549;BME280;1284;53.520;10.248;2022-12-24T06:46:23;99961.59;;;8.29;97.96
2549;BME280;1284;53.520;10.248;2022-12-24T06:48:48;99964.75;;;8.35;98.23
2549;BME280;1284;53.520;10.248;2022-12-24T06:51:16;99966.41;;;8.20;98.26
2549;BME280;1284;53.520;10.248;2022-12-24T06:53:44;99964.00;;;8.34;98.89
2549;BME280;1284;53.520;10.248;2022-12-24T06:56:11;99977.34;;;8.31;98.37
2549;BME280;1284;53.520;10.248;2022-12-24T06:58:38;99978.19;;;8.35;98.56
2549;BME280;1284;53.520;10.248;2022-12-24T07:01:06;99979.84;;;8.43;97.80
2549;BME280;1284;53.520;10.248;2022-12-24T07:03:32;99982.06;;;8.37;97.86
2549;BME280;1284;53.520;10.248;2022-12-24T07:05:58;99972.06;;;8.34;97.84
2549;BME280;1284;53.520;10.248;2022-12-24T07:08:23;99984.19;;;8.28;98.17
2549;BME280;1284;53.520;10.248;2022-12-24T07:10:51;99991.09;;;8.29;98.58
2549;BME280;1284;53.520;10.248;2022-12-24T07:13:17;99981.63;;;8.35;98.53
2549;BME280;1284;53.520;10.248;2022-12-24T07:15:43;99988.97;;;8.38;98.65
2549;BME280;1284;53.520;10.248;2022-12-24T07:18:09;99994.00;;;8.40;98.56
2549;BME280;1284;53.520;10.248;2022-12-24T07:20:34;99998.88;;;8.34;98.93
2549;BME280;1284;53.520;10.248;2022-12-24T07:23:00;99996.19;;;8.34;98.33
2549;BME280;1284;53.520;10.248;2022-12-24T07:25:25;100006.94;;;8.34;98.53
2549;BME280;1284;53.520;10.248;2022-12-24T07:27:51;100018.41;;;8.35;98.54
2549;BME280;1284;53.520;10.248;2022-12-24T07:30:16;100004.72;;;8.40;98.39
2549;BME280;1284;53.520;10.248;2022-12-24T07:32:42;100012.78;;;8.40;98.16
2549;BME280;1284;53.520;10.248;2022-12-24T07:35:10;100004.44;;;8.26;97.59
2549;BME280;1284;53.520;10.248;2022-12-24T07:37:36;100017.56;;;7.92;99.10
2549;BME280;1284;53.520;10.248;2022-12-24T07:40:02;100028.50;;;8.03;99.80
2549;BME280;1284;53.520;10.248;2022-12-24T07:42:30;100030.91;;;8.08;99.57
2549;BME280;1284;53.520;10.248;2022-12-24T07:44:58;100029.91;;;8.16;99.14
2549;BME280;1284;53.520;10.248;2022-12-24T07:47:24;100033.97;;;8.26;99.09
2549;BME280;1284;53.520;10.248;2022-12-24T07:49:49;100039.88;;;8.35;98.63
2549;BME280;1284;53.520;10.248;2022-12-24T07:52:15;100048.56;;;8.28;98.17
2549;BME280;1284;53.520;10.248;2022-12-24T07:54:40;100037.75;;;8.25;98.42
2549;BME280;1284;53.520;10.248;2022-12-24T07:57:06;100043.63;;;8.30;98.29
2549;BME280;1284;53.520;10.248;2022-12-24T07:59:31;100050.91;;;8.30;98.48
2549;BME280;1284;53.520;10.248;2022-12-24T08:01:56;100056.84;;;8.23;98.25
2549;BME280;1284;53.520;10.248;2022-12-24T08:04:22;100053.06;;;8.24;98.26
2549;BME280;1284;53.520;10.248;2022-12-24T08:06:47;100056.63;;;8.28;98.23
2549;BME280;1284;53.520;10.248;2022-12-24T08:09:12;100060.69;;;8.22;98.58
2549;BME280;1284;53.520;10.248;2022-12-24T08:11:39;100062.41;;;8.30;98.29
2549;BME280;1284;53.520;10.248;2022-12-24T08:14:04;100072.72;;;8.28;98.65
2549;BME280;1284;53.520;10.248;2022-12-24T08:16:30;100064.47;;;8.21;98.56
2549;BME280;1284;53.520;10.248;2022-12-24T08:18:55;100086.03;;;8.25;98.42
2549;BME280;1284;53.520;10.248;2022-12-24T08:21:21;100084.47;;;8.23;98.80
2549;BME280;1284;53.520;10.248;2022-12-24T08:23:46;100083.47;;;8.12;98.30
2549;BME280;1284;53.520;10.248;2022-12-24T08:26:12;100076.72;;;8.18;99.11
2549;BME280;1284;53.520;10.248;2022-12-24T08:28:38;100086.81;;;8.25;98.95
2549;BME280;1284;53.520;10.248;2022-12-24T08:31:06;100081.00;;;8.23;98.92
2549;BME280;1284;53.520;10.248;2022-12-24T08:33:31;100086.09;;;8.09;98.29
2549;BME280;1284;53.520;10.248;2022-12-24T08:35:57;100084.22;;;8.13;99.36
2549;BME280;1284;53.520;10.248;2022-12-24T08:38:25;100099.44;;;8.25;98.90
2549;BME280;1284;53.520;10.248;2022-12-24T08:40:52;100099.53;;;8.28;99.42
2549;BME280;1284;53.520;10.248;2022-12-24T08:43:18;100093.38;;;8.28;98.94
2549;BME280;1284;53.520;10.248;2022-12-24T08:45:45;100093.28;;;8.24;98.55
2549;BME280;1284;53.520;10.248;2022-12-24T08:48:11;100096.59;;;8.17;98.92
2549;BME280;1284;53.520;10.248;2022-12-24T08:50:40;100096.75;;;8.25;99.39
2549;BME280;1284;53.520;10.248;2022-12-24T08:53:08;100105.31;;;8.30;99.22
2549;BME280;1284;53.520;10.248;2022-12-24T08:55:33;100098.47;;;8.33;98.92
2549;BME280;1284;53.520;10.248;2022-12-24T08:57:59;100111.19;;;8.36;99.11
2549;BME280;1284;53.520;10.248;2022-12-24T09:00:25;100116.06;;;8.30;99.00
2549;BME280;1284;53.520;10.248;2022-12-24T09:02:51;100108.06;;;8.34;98.92
2549;BME280;1284;53.520;10.248;2022-12-24T09:05:16;100128.38;;;8.35;99.10
2549;BME280;1284;53.520;10.248;2022-12-24T09:07:42;100129.25;;;8.39;99.02
2549;BME280;1284;53.520;10.248;2022-12-24T09:10:08;100123.94;;;8.42;99.02
2549;BME280;1284;53.520;10.248;2022-12-24T09:12:34;100128.56;;;8.42;98.73
2549;BME280;1284;53.520;10.248;2022-12-24T09:15:00;100134.25;;;8.40;98.69
2549;BME280;1284;53.520;10.248;2022-12-24T09:17:28;100133.13;;;8.41;98.80
2549;BME280;1284;53.520;10.248;2022-12-24T09:19:54;100141.25;;;8.45;98.68
2549;BME280;1284;53.520;10.248;2022-12-24T09:22:20;100142.47;;;8.47;98.41
2549;BME280;1284;53.520;10.248;2022-12-24T09:24:45;100148.81;;;8.39;98.43
2549;BME280;1284;53.520;10.248;2022-12-24T09:27:11;100142.66;;;8.39;98.85
2549;BME280;1284;53.520;10.248;2022-12-24T09:29:36;100142.16;;;8.33;98.91
2549;BME280;1284;53.520;10.248;2022-12-24T09:32:05;100162.16;;;8.36;98.53
2549;BME280;1284;53.520;10.248;2022-12-24T09:34:31;100150.69;;;8.39;99.11
2549;BME280;1284;53.520;10.248;2022-12-24T09:36:56;100165.25;;;8.38;98.83
2549;BME280;1284;53.520;10.248;2022-12-24T09:39:22;100167.72;;;8.46;99.02
2549;BME280;1284;53.520;10.248;2022-12-24T09:44:48;100180.03;;;8.47;99.12
2549;BME280;1284;53.520;10.248;2022-12-24T09:47:23;100195.28;;;8.43;99.15
2549;BME280;1284;53.520;10.248;2022-12-24T09:49:55;100195.53;;;8.38;99.48
2549;BME280;1284;53.520;10.248;2022-12-24T09:52:35;100196.16;;;8.32;99.09
2549;BME280;1284;53.520;10.248;2022-12-24T09:57:39;100195.88;;;8.37;99.18
2549;BME280;1284;53.520;10.248;2022-12-24T10:00:27;100189.03;;;8.39;99.24
2549;BME280;1284;53.520;10.248;2022-12-24T10:02:53;100194.56;;;8.46;99.28
2549;BME280;1284;53.520;10.248;2022-12-24T10:05:31;100183.88;;;8.50;99.46
2549;BME280;1284;53.520;10.248;2022-12-24T10:08:52;100190.81;;;8.32;99.34
2549;BME280;1284;53.520;10.248;2022-12-24T10:11:26;100195.53;;;8.38;99.96
2549;BME280;1284;53.520;10.248;2022-12-24T10:14:13;100193.28;;;8.40;99.67
2549;BME280;1284;53.520;10.248;2022-12-24T10:16:47;100210.41;;;8.70;98.15
2549;BME280;1284;53.520;10.248;2022-12-24T10:19:22;100215.09;;;8.58;98.53
2549;BME280;1284;53.520;10.248;2022-12-24T10:24:53;100217.72;;;8.54;98.73
2549;BME280;1284;53.520;10.248;2022-12-24T10:27:25;100220.91;;;8.60;99.41
2549;BME280;1284;53.520;10.248;2022-12-24T10:30:01;100216.97;;;8.73;98.79
2549;BME280;1284;53.520;10.248;2022-12-24T10:32:31;100225.94;;;8.61;98.44
2549;BME280;1284;53.520;10.248;2022-12-24T10:35:14;100228.81;;;8.53;98.58
2549;BME280;1284;53.520;10.248;2022-12-24T10:37:43;100221.38;;;8.46;99.56
2549;BME280;1284;53.520;10.248;2022-12-24T10:40:30;100218.00;;;8.49;99.84
2549;BME280;1284;53.520;10.248;2022-12-24T10:42:58;100228.53;;;8.58;99.70
2549;BME280;1284;53.520;10.248;2022-12-24T10:45:26;100231.72;;;8.63;99.54
2549;BME280;1284;53.520;10.248;2022-12-24T10:47:57;100230.41;;;8.73;99.36
2549;BME280;1284;53.520;10.248;2022-12-24T10:50:41;100233.59;;;8.78;99.23
2549;BME280;1284;53.520;10.248;2022-12-24T10:53:17;100240.34;;;8.72;99.35
2549;BME280;1284;53.520;10.248;2022-12-24T10:55:46;100239.63;;;8.75;99.39
2549;BME280;1284;53.520;10.248;2022-12-24T10:58:16;100237.38;;;8.77;98.64
2549;BME280;1284;53.520;10.248;2022-12-24T11:00:49;100243.59;;;8.81;97.90
2549;BME280;1284;53.520;10.248;2022-12-24T11:05:43;100244.91;;;8.53;98.78
2549;BME280;1284;53.520;10.248;2022-12-24T11:08:15;100245.34;;;8.55;99.83
2549;BME280;1284;53.520;10.248;2022-12-24T11:10:53;100245.13;;;8.63;98.77
2549;BME280;1284;53.520;10.248;2022-12-24T11:13:24;100242.09;;;8.46;99.75
2549;BME280;1284;53.520;10.248;2022-12-24T11:16:00;100246.66;;;8.45;100.00
2549;BME280;1284;53.520;10.248;2022-12-24T11:18:26;100238.75;;;8.52;100.00
2549;BME280;1284;53.520;10.248;2022-12-24T11:20:53;100233.84;;;8.73;99.45
2549;BME280;1284;53.520;10.248;2022-12-24T11:23:19;100240.34;;;8.72;99.61
2549;BME280;1284;53.520;10.248;2022-12-24T11:25:48;100242.25;;;8.72;99.90
2549;BME280;1284;53.520;10.248;2022-12-24T11:28:27;100251.16;;;8.76;99.54
2549;BME280;1284;53.520;10.248;2022-12-24T11:31:05;100262.13;;;8.86;99.36
2549;BME280;1284;53.520;10.248;2022-12-24T11:33:32;100262.53;;;8.88;99.39
2549;BME280;1284;53.520;10.248;2022-12-24T11:36:11;100252.56;;;8.89;99.37
2549;BME280;1284;53.520;10.248;2022-12-24T11:38:37;100250.69;;;8.89;99.10
2549;BME280;1284;53.520;10.248;2022-12-24T11:41:04;100240.50;;;8.79;99.04
2549;BME280;1284;53.520;10.248;2022-12-24T11:43:36;100241.13;;;8.73;99.56
2549;BME280;1284;53.520;10.248;2022-12-24T11:46:47;100237.72;;;8.57;100.00
2549;BME280;1284;53.520;10.248;2022-12-24T11:49:16;100239.84;;;8.48;100.00
2549;BME280;1284;53.520;10.248;2022-12-24T11:54:56;100248.97;;;8.81;100.00
2549;BME280;1284;53.520;10.248;2022-12-24T11:57:40;100232.19;;;8.84;100.00
2549;BME280;1284;53.520;10.248;2022-12-24T12:00:09;100235.41;;;8.93;100.00
2549;BME280;1284;53.520;10.248;2022-12-24T12:02:37;100237.06;;;8.98;100.00
2549;BME280;1284;53.520;10.248;2022-12-24T12:05:08;100240.22;;;8.84;100.00
2549;BME280;1284;53.520;10.248;2022-12-24T12:07:37;100253.72;;;8.88;100.00
2549;BME280;1284;53.520;10.248;2022-12-24T12:10:21;100247.91;;;8.86;100.00
2549;BME280;1284;53.520;10.248;2022-12-24T12:13:00;100250.25;;;8.87;100.00
2549;BME280;1284;53.520;10.248;2022-12-24T12:15:36;100243.47;;;8.93;100.00
2549;BME280;1284;53.520;10.248;2022-12-24T12:18:10;100246.72;;;9.02;100.00
2549;BME280;1284;53.520;10.248;2022-12-24T12:20:41;100248.03;;;9.12;100.00
2549;BME280;1284;53.520;10.248;2022-12-24T12:23:23;100252.78;;;9.19;100.00
2549;BME280;1284;53.520;10.248;2022-12-24T12:30:54;100263.72;;;9.29;100.00
2549;BME280;1284;53.520;10.248;2022-12-24T12:33:30;100262.66;;;9.34;100.00
2549;BME280;1284;53.520;10.248;2022-12-24T12:35:59;100261.19;;;9.36;99.90
2549;BME280;1284;53.520;10.248;2022-12-24T12:38:27;100267.16;;;9.49;98.97
2549;BME280;1284;53.520;10.248;2022-12-24T12:41:11;100273.31;;;9.49;99.32
2549;BME280;1284;53.520;10.248;2022-12-24T12:56:54;100271.84;;;9.74;100.00
2549;BME280;1284;53.520;10.248;2022-12-24T13:05:11;100281.97;;;9.81;100.00
2549;BME280;1284;53.520;10.248;2022-12-24T13:07:45;100288.50;;;9.83;100.00
2549;BME280;1284;53.520;10.248;2022-12-24T13:19:07;100303.00;;;9.75;100.00
2549;BME280;1284;53.520;10.248;2022-12-24T13:21:43;100304.59;;;9.80;100.00
2549;BME280;1284;53.520;10.248;2022-12-24T13:24:23;100304.59;;;9.80;100.00
2549;BME280;1284;53.520;10.248;2022-12-24T13:27:17;100314.34;;;9.88;100.00
2549;BME280;1284;53.520;10.248;2022-12-24T13:34:53;100321.56;;;9.84;100.00
2549;BME280;1284;53.520;10.248;2022-12-24T13:37:25;100330.06;;;9.86;100.00
2549;BME280;1284;53.520;10.248;2022-12-24T13:40:24;100328.09;;;9.83;100.00
2549;BME280;1284;53.520;10.248;2022-12-24T13:43:05;100331.22;;;9.85;100.00
2549;BME280;1284;53.520;10.248;2022-12-24T13:53:17;100352.13;;;9.95;100.00
2549;BME280;1284;53.520;10.248;2022-12-24T13:55:50;100357.16;;;9.96;100.00
2549;BME280;1284;53.520;10.248;2022-12-24T13:58:18;100365.56;;;9.95;100.00
2549;BME280;1284;53.520;10.248;2022-12-24T14:00:58;100365.66;;;9.98;100.00
2549;BME280;1284;53.520;10.248;2022-12-24T14:03:31;100359.84;;;9.96;100.00
2549;BME280;1284;53.520;10.248;2022-12-24T14:06:09;100360.28;;;9.98;100.00
2549;BME280;1284;53.520;10.248;2022-12-24T14:08:46;100367.34;;;9.87;100.00
2549;BME280;1284;53.520;10.248;2022-12-24T14:11:19;100362.88;;;9.95;100.00
2549;BME280;1284;53.520;10.248;2022-12-24T14:16:30;100367.50;;;9.94;100.00
2549;BME280;1284;53.520;10.248;2022-12-24T14:21:36;100361.13;;;10.02;100.00
2549;BME280;1284;53.520;10.248;2022-12-24T14:24:14;100369.19;;;10.02;100.00
2549;BME280;1284;53.520;10.248;2022-12-24T14:26:59;100372.22;;;10.01;100.00
2549;BME280;1284;53.520;10.248;2022-12-24T14:29:31;100373.78;;;10.02;100.00
2549;BME280;1284;53.520;10.248;2022-12-24T14:32:00;100373.78;;;10.02;100.00
2549;BME280;1284;53.520;10.248;2022-12-24T14:34:29;100374.56;;;10.02;100.00
2549;BME280;1284;53.520;10.248;2022-12-24T14:37:02;100386.06;;;10.03;100.00
2549;BME280;1284;53.520;10.248;2022-12-24T14:39:31;100382.28;;;10.04;100.00
2549;BME280;1284;53.520;10.248;2022-12-24T14:42:21;100379.94;;;10.02;100.00
2549;BME280;1284;53.520;10.248;2022-12-24T14:45:10;100386.88;;;10.03;100.00
2549;BME280;1284;53.520;10.248;2022-12-24T14:48:01;100393.41;;;10.02;100.00
2549;BME280;1284;53.520;10.248;2022-12-24T14:53:27;100406.34;;;9.97;100.00
2549;BME280;1284;53.520;10.248;2022-12-24T14:55:54;100400.94;;;9.97;100.00
2549;BME280;1284;53.520;10.248;2022-12-24T15:00:57;100415.59;;;9.99;100.00
2549;BME280;1284;53.520;10.248;2022-12-24T15:03:26;100412.50;;;9.97;100.00
2549;BME280;1284;53.520;10.248;2022-12-24T15:05:55;100419.50;;;10.02;100.00